Time;durP1;ratioP1;P1;durP2;ratioP2;P2;SDS_P1;SDS_P2;PMS_P1;PMS_P2;Temp;Humidity;BMP_temperature;BMP_pressure;BME280_temperature;BME280_humidity;BME280_pressure;Samples;Min_cycle;Max_cycle;Signal;HPM_P1;HPM_P2
2022/11/07 00:00:56;;;;;;;11.07;6.35;;;10.90;99.90;;;;;;5043387;28;20045;-66
2022/11/07 00:03:22;;;;;;;11.02;6.50;;;10.80;99.90;;;;;;5043999;28;20088;-66
2022/11/07 00:05:48;;;;;;;10.43;6.32;;;10.90;99.90;;;;;;5031315;28;20049;-66
2022/11/07 00:08:13;;;;;;;13.80;6.13;;;10.90;99.90;;;;;;5044910;28;20144;-66
2022/11/07 00:10:39;;;;;;;10.13;5.72;;;10.90;99.90;;;;;;5031564;28;20049;-66
2022/11/07 00:13:05;;;;;;;7.82;5.53;;;10.90;99.90;;;;;;5043483;28;20052;-66
2022/11/07 00:15:30;;;;;;;10.10;5.93;;;11.00;99.90;;;;;;5049391;28;20056;-66
2022/11/07 00:17:57;;;;;;;11.60;5.78;;;11.00;99.90;;;;;;5061557;28;20575;-66
2022/11/07 00:20:22;;;;;;;9.50;5.32;;;11.00;99.90;;;;;;5050773;28;20045;-66
2022/11/07 00:22:48;;;;;;;7.60;5.53;;;11.00;99.90;;;;;;5053919;28;20052;-66
2022/11/07 00:25:14;;;;;;;10.55;5.97;;;11.00;99.90;;;;;;5061572;28;20401;-66
2022/11/07 00:27:40;;;;;;;11.52;5.70;;;11.00;99.90;;;;;;5052857;28;20057;-66
2022/11/07 00:30:06;;;;;;;7.93;5.47;;;11.10;99.90;;;;;;5062660;28;20371;-66
2022/11/07 00:32:31;;;;;;;8.93;5.97;;;11.20;99.90;;;;;;5063456;28;20040;-66
2022/11/07 00:34:57;;;;;;;9.02;5.47;;;11.10;99.90;;;;;;5058894;28;20508;-66
2022/11/07 00:37:23;;;;;;;9.60;5.18;;;11.10;99.90;;;;;;5050080;28;20045;-66
2022/11/07 00:39:48;;;;;;;8.45;5.38;;;11.20;99.90;;;;;;5054880;28;20059;-66
2022/11/07 00:42:14;;;;;;;10.13;5.70;;;11.10;99.90;;;;;;5045594;28;20449;-66
2022/11/07 00:44:40;;;;;;;8.48;5.82;;;11.10;99.90;;;;;;5056218;28;20460;-66
2022/11/07 00:47:05;;;;;;;9.25;5.68;;;11.20;99.90;;;;;;5053673;28;20048;-66
2022/11/07 00:49:31;;;;;;;9.13;5.10;;;11.20;99.90;;;;;;5055699;28;20042;-66
2022/11/07 00:51:56;;;;;;;12.63;5.60;;;11.10;99.90;;;;;;5051258;28;20097;-66
2022/11/07 00:54:22;;;;;;;14.13;5.85;;;11.20;99.90;;;;;;5055093;28;20099;-66
2022/11/07 00:56:48;;;;;;;8.63;5.13;;;11.10;99.90;;;;;;5054527;28;20101;-66
2022/11/07 00:59:13;;;;;;;9.75;5.20;;;11.20;99.90;;;;;;5057040;28;20045;-66
2022/11/07 01:01:39;;;;;;;13.00;5.97;;;11.20;99.90;;;;;;5057039;28;20043;-66
2022/11/07 01:06:49;;;;;;;10.98;5.07;;;11.30;99.90;;;;;;5045023;28;20131;-66
2022/11/07 01:09:18;;;;;;;13.85;5.88;;;11.30;99.90;;;;;;5058096;28;20444;-66
2022/11/07 01:11:44;;;;;;;16.48;6.70;;;11.20;99.90;;;;;;5054762;28;20380;-66
2022/11/07 01:14:12;;;;;;;10.23;5.22;;;11.20;99.90;;;;;;5060746;28;20045;-66
2022/11/07 01:16:38;;;;;;;11.30;5.40;;;11.20;99.90;;;;;;5056212;28;20064;-66
2022/11/07 01:19:05;;;;;;;11.15;5.40;;;11.30;99.90;;;;;;5052240;28;20046;-66
2022/11/07 01:21:31;;;;;;;9.10;5.43;;;11.20;99.90;;;;;;5050665;28;20049;-66
2022/11/07 01:23:57;;;;;;;14.73;4.90;;;11.20;99.90;;;;;;5058721;28;20091;-66
2022/11/07 01:26:22;;;;;;;11.27;5.00;;;11.30;99.90;;;;;;5056880;28;20045;-66
2022/11/07 01:28:48;;;;;;;14.48;5.47;;;11.30;99.90;;;;;;5059202;28;20566;-66
2022/11/07 01:31:15;;;;;;;10.80;5.18;;;11.20;99.90;;;;;;5056340;28;20105;-66
2022/11/07 01:33:42;;;;;;;7.80;4.72;;;11.30;99.90;;;;;;5060708;28;20045;-66
2022/11/07 01:36:10;;;;;;;9.25;5.60;;;11.30;99.90;;;;;;5058263;28;20056;-66
2022/11/07 01:38:41;;;;;;;8.88;4.55;;;11.30;99.90;;;;;;5052613;28;20045;-66
2022/11/07 01:41:20;;;;;;;9.32;5.53;;;11.20;99.90;;;;;;5059603;28;20449;-66
2022/11/07 01:43:56;;;;;;;12.87;5.77;;;11.20;99.90;;;;;;5060451;28;20094;-66
2022/11/07 01:46:26;;;;;;;12.05;5.60;;;11.20;99.90;;;;;;5048039;28;20048;-66
2022/11/07 01:49:08;;;;;;;7.82;4.30;;;11.20;99.90;;;;;;5063360;28;20044;-66
2022/11/07 01:51:43;;;;;;;11.68;5.25;;;11.10;99.90;;;;;;5033953;28;20060;-66
2022/11/07 01:54:12;;;;;;;14.68;5.10;;;11.20;99.90;;;;;;5057278;28;20417;-66
2022/11/07 01:56:42;;;;;;;11.93;4.73;;;11.20;99.90;;;;;;5046379;28;20109;-66
2022/11/07 01:59:14;;;;;;;12.52;4.65;;;11.30;99.90;;;;;;5054992;28;20466;-66
2022/11/07 02:01:40;;;;;;;10.80;4.45;;;11.30;99.90;;;;;;5054071;28;20064;-66
2022/11/07 02:04:06;;;;;;;9.80;4.80;;;11.30;99.90;;;;;;5056976;28;20408;-66
2022/11/07 02:06:32;;;;;;;9.98;4.43;;;11.30;99.90;;;;;;5054337;28;20049;-66
2022/11/07 02:08:58;;;;;;;9.48;4.90;;;11.30;99.90;;;;;;5057108;28;20053;-66
2022/11/07 02:11:24;;;;;;;11.15;5.10;;;11.40;99.90;;;;;;5057417;28;20056;-66
2022/11/07 02:13:49;;;;;;;9.82;4.47;;;11.40;99.90;;;;;;5055983;28;20090;-66
2022/11/07 02:16:15;;;;;;;14.63;4.85;;;11.40;99.90;;;;;;5057909;28;20065;-66
2022/11/07 02:18:43;;;;;;;7.22;4.43;;;11.50;99.90;;;;;;5054265;28;20052;-66
2022/11/07 02:21:37;;;;;;;12.63;5.82;;;11.50;99.90;;;;;;5087110;28;20071;-66
2022/11/07 02:24:23;;;;;;;10.93;4.40;;;11.60;99.90;;;;;;5039906;28;20150;-66
2022/11/07 02:26:49;;;;;;;11.30;4.85;;;11.60;99.90;;;;;;5054917;28;20048;-66
2022/11/07 02:29:15;;;;;;;16.92;5.38;;;11.50;99.90;;;;;;5059188;28;20052;-66
2022/11/07 02:31:41;;;;;;;7.95;4.22;;;11.50;99.90;;;;;;5058924;28;20095;-66
2022/11/07 02:34:06;;;;;;;12.57;4.93;;;11.50;99.90;;;;;;5058679;28;20052;-66
2022/11/07 02:36:32;;;;;;;9.45;4.72;;;11.50;99.90;;;;;;5057484;28;20072;-66
2022/11/07 02:38:59;;;;;;;10.18;4.35;;;11.40;99.90;;;;;;5053899;28;20049;-66
2022/11/07 02:41:29;;;;;;;11.88;4.60;;;11.40;99.90;;;;;;5058821;28;20057;-66
2022/11/07 02:43:59;;;;;;;9.40;4.00;;;11.40;99.90;;;;;;5058529;28;20131;-66
2022/11/07 02:46:26;;;;;;;12.13;4.70;;;11.50;99.90;;;;;;5058675;28;20332;-66
2022/11/07 02:48:57;;;;;;;12.10;4.50;;;11.50;99.90;;;;;;5058595;28;20083;-66
2022/11/07 02:51:23;;;;;;;9.55;4.30;;;11.50;99.90;;;;;;5058514;28;20105;-66
2022/11/07 02:53:50;;;;;;;6.80;4.05;;;11.50;99.90;;;;;;5054677;28;20048;-66
2022/11/07 02:56:15;;;;;;;8.95;4.40;;;11.50;99.90;;;;;;5060508;28;20048;-66
2022/11/07 02:58:41;;;;;;;14.90;5.95;;;11.50;99.90;;;;;;5060785;28;20417;-66
2022/11/07 03:01:07;;;;;;;9.25;4.88;;;11.60;99.90;;;;;;5062334;28;20101;-66
2022/11/07 03:03:38;;;;;;;9.23;4.75;;;11.60;99.90;;;;;;5057027;28;20107;-66
2022/11/07 03:06:08;;;;;;;10.75;4.57;;;11.50;99.90;;;;;;5056764;28;20041;-66
2022/11/07 03:08:34;;;;;;;10.77;5.50;;;11.60;99.90;;;;;;5058656;28;20219;-66
2022/11/07 03:11:00;;;;;;;9.85;5.30;;;11.60;99.90;;;;;;5061910;28;20037;-66
2022/11/07 03:13:26;;;;;;;15.77;5.07;;;11.70;99.90;;;;;;5059786;28;20049;-66
2022/11/07 03:15:52;;;;;;;14.57;5.18;;;11.60;99.90;;;;;;5064432;28;20049;-66
2022/11/07 03:18:18;;;;;;;10.52;4.65;;;11.60;99.90;;;;;;5050099;28;20105;-66
2022/11/07 03:20:44;;;;;;;13.27;5.10;;;11.60;99.90;;;;;;5060599;28;20151;-66
2022/11/07 03:23:10;;;;;;;10.43;5.35;;;11.70;99.90;;;;;;5049827;28;20056;-66
2022/11/07 03:25:36;;;;;;;9.38;4.70;;;11.60;99.90;;;;;;5056454;28;20053;-66
2022/11/07 03:28:01;;;;;;;9.27;4.43;;;11.60;99.90;;;;;;5052596;28;20065;-66
2022/11/07 03:30:27;;;;;;;9.90;5.28;;;11.60;99.90;;;;;;5057097;28;20072;-66
2022/11/07 03:32:53;;;;;;;14.02;5.13;;;11.50;99.90;;;;;;5053076;28;20041;-66
2022/11/07 03:35:20;;;;;;;12.35;4.95;;;11.50;99.90;;;;;;5056940;28;20068;-66
2022/11/07 03:37:46;;;;;;;12.85;5.03;;;11.40;99.90;;;;;;5046220;28;20045;-66
2022/11/07 03:40:13;;;;;;;13.65;4.80;;;11.40;99.90;;;;;;5051530;28;20042;-66
2022/11/07 03:42:40;;;;;;;10.05;5.10;;;11.30;99.90;;;;;;5051798;28;20100;-66
2022/11/07 03:45:07;;;;;;;16.77;6.35;;;11.20;99.90;;;;;;5059878;28;20041;-66
2022/11/07 03:47:38;;;;;;;8.35;4.80;;;11.20;99.90;;;;;;5055020;28;20068;-66
2022/11/07 03:50:05;;;;;;;12.75;4.60;;;11.20;99.90;;;;;;5060132;28;20214;-66
2022/11/07 03:52:31;;;;;;;12.93;4.43;;;11.20;99.90;;;;;;5048269;28;20053;-66
2022/11/07 03:54:56;;;;;;;10.40;4.75;;;11.20;99.90;;;;;;5060085;28;20051;-66
2022/11/07 03:57:22;;;;;;;10.73;5.20;;;11.10;99.90;;;;;;5056047;28;20045;-66
2022/11/07 03:59:48;;;;;;;12.93;4.60;;;11.10;99.90;;;;;;5060976;28;20052;-66
2022/11/07 04:02:14;;;;;;;13.38;4.63;;;11.20;99.90;;;;;;5056133;28;20124;-66
2022/11/07 04:04:39;;;;;;;14.65;5.63;;;11.10;99.90;;;;;;5062341;28;20037;-66
2022/11/07 04:07:05;;;;;;;15.20;5.82;;;11.20;99.90;;;;;;5057115;28;20076;-66
2022/11/07 04:09:31;;;;;;;11.82;4.90;;;11.20;99.90;;;;;;5061544;28;20429;-66
2022/11/07 04:17:26;;;;;;;12.05;4.70;;;11.20;99.90;;;;;;5092906;28;20056;-66
2022/11/07 04:19:54;;;;;;;14.43;4.90;;;11.20;99.90;;;;;;5044497;28;20065;-66
2022/11/07 04:22:24;;;;;;;12.70;5.07;;;11.30;99.90;;;;;;5063220;28;20087;-66
2022/11/07 04:24:51;;;;;;;9.80;4.47;;;11.30;99.90;;;;;;5042691;28;20049;-66
2022/11/07 04:30:28;;;;;;;11.95;4.70;;;11.30;99.90;;;;;;5052774;28;20114;-66
2022/11/07 04:32:59;;;;;;;16.10;5.75;;;11.20;99.90;;;;;;5062670;28;20074;-66
2022/11/07 04:35:27;;;;;;;11.95;4.07;;;11.30;99.90;;;;;;5043296;28;20053;-66
2022/11/07 04:37:53;;;;;;;11.63;4.15;;;11.30;99.90;;;;;;5044664;28;20067;-66
2022/11/07 04:40:19;;;;;;;9.38;4.28;;;11.30;99.90;;;;;;5063299;28;20124;-66
2022/11/07 04:42:45;;;;;;;14.88;4.57;;;11.30;99.90;;;;;;5062800;28;20518;-66
2022/11/07 04:45:12;;;;;;;14.13;4.50;;;11.40;99.90;;;;;;5063569;28;20083;-66
2022/11/07 04:47:39;;;;;;;12.05;4.55;;;11.30;99.90;;;;;;5052024;28;20049;-66
2022/11/07 04:50:08;;;;;;;22.50;5.07;;;11.30;99.90;;;;;;5049115;28;20102;-66
2022/11/07 04:52:33;;;;;;;15.48;4.90;;;11.30;99.90;;;;;;5046057;28;20196;-66
2022/11/07 04:54:59;;;;;;;17.35;4.88;;;11.30;99.90;;;;;;5032900;28;20060;-66
2022/11/07 04:57:25;;;;;;;10.50;4.47;;;11.40;99.90;;;;;;5046061;28;20042;-66
2022/11/07 04:59:50;;;;;;;11.23;4.25;;;11.40;99.90;;;;;;5046317;28;20063;-66
2022/11/07 05:02:16;;;;;;;13.18;4.93;;;11.30;99.90;;;;;;5046065;28;20041;-66
2022/11/07 05:04:42;;;;;;;12.77;4.50;;;11.30;99.90;;;;;;5046685;28;20045;-66
2022/11/07 05:07:08;;;;;;;11.18;4.70;;;11.30;99.90;;;;;;5045891;28;20052;-66
2022/11/07 05:09:34;;;;;;;13.30;4.65;;;11.40;99.90;;;;;;5031415;28;20433;-66
2022/11/07 05:12:01;;;;;;;11.80;4.68;;;11.30;99.90;;;;;;5046236;28;20490;-66
2022/11/07 05:14:30;;;;;;;11.45;5.00;;;11.30;99.90;;;;;;5046346;28;20132;-67
2022/11/07 05:16:56;;;;;;;15.57;5.00;;;11.30;99.90;;;;;;5049725;28;20132;-66
2022/11/07 05:19:22;;;;;;;10.48;4.90;;;11.30;99.90;;;;;;5047091;28;20556;-66
2022/11/07 05:23:11;;;;;;;14.38;6.18;;;11.20;99.90;;;;;;5045724;28;20053;-66
2022/11/07 05:24:33;;;;;;;11.38;4.57;;;11.30;99.90;;;;;;5044313;28;20068;-66
2022/11/07 05:26:59;;;;;;;13.32;6.00;;;11.20;99.90;;;;;;5045836;28;20049;-66
2022/11/07 05:29:25;;;;;;;14.30;5.68;;;11.30;99.90;;;;;;5044696;28;20054;-66
2022/11/07 05:31:50;;;;;;;13.35;5.57;;;11.20;99.90;;;;;;5049117;28;20049;-66
2022/11/07 05:34:16;;;;;;;18.02;6.05;;;11.30;99.90;;;;;;5049716;28;20077;-66
2022/11/07 05:36:42;;;;;;;11.07;5.90;;;11.20;99.90;;;;;;5046531;28;20113;-66
2022/11/07 05:39:07;;;;;;;10.25;5.43;;;11.20;99.90;;;;;;5068031;28;20041;-66
2022/11/07 05:41:35;;;;;;;14.40;5.38;;;11.30;99.90;;;;;;5001891;28;20054;-66
2022/11/07 05:44:01;;;;;;;13.88;5.45;;;11.40;99.90;;;;;;5026456;28;20102;-67
2022/11/07 05:46:26;;;;;;;12.18;4.72;;;11.30;99.90;;;;;;5059498;28;20049;-66
2022/11/07 05:48:52;;;;;;;13.65;5.47;;;11.30;99.90;;;;;;5044382;28;20057;-69
2022/11/07 05:51:18;;;;;;;19.52;6.20;;;11.30;99.90;;;;;;5025775;28;20048;-68
2022/11/07 05:53:44;;;;;;;14.68;5.38;;;11.40;99.90;;;;;;5054414;28;20064;-68
2022/11/07 05:56:09;;;;;;;10.45;5.40;;;11.40;99.90;;;;;;5036949;28;20496;-66
2022/11/07 05:58:35;;;;;;;14.70;5.90;;;11.20;99.90;;;;;;5034378;28;20052;-66
2022/11/07 06:01:03;;;;;;;12.50;5.28;;;11.30;99.90;;;;;;5031715;28;20037;-67
2022/11/07 06:03:30;;;;;;;14.77;5.35;;;11.20;99.90;;;;;;5070504;28;20057;-66
2022/11/07 06:05:55;;;;;;;20.33;6.43;;;11.20;99.90;;;;;;5031104;28;20060;-66
2022/11/07 06:08:21;;;;;;;9.65;4.93;;;11.20;99.90;;;;;;5056624;28;20057;-66
2022/11/07 06:10:47;;;;;;;15.57;6.22;;;11.10;99.90;;;;;;5040523;28;20052;-68
2022/11/07 06:13:15;;;;;;;8.75;4.75;;;11.30;99.90;;;;;;5062903;28;20056;-68
2022/11/07 06:15:42;;;;;;;10.50;5.20;;;11.30;99.90;;;;;;5039300;28;20045;-68
2022/11/07 06:18:12;;;;;;;12.68;5.00;;;11.40;99.90;;;;;;5062658;28;20045;-68
2022/11/07 06:20:38;;;;;;;;;;;11.40;99.90;;;;;;5023201;28;20048;-69
2022/11/07 06:23:05;;;;;;;14.15;5.75;;;11.40;99.90;;;;;;5062047;28;19929;-67
2022/11/07 06:25:31;;;;;;;10.60;4.72;;;11.40;99.90;;;;;;5038285;28;20041;-70
2022/11/07 06:28:04;;;;;;;13.77;5.32;;;11.40;99.90;;;;;;5048462;28;20143;-71
2022/11/07 06:30:31;;;;;;;15.75;5.93;;;11.40;99.90;;;;;;5017042;28;20073;-70
2022/11/07 06:33:06;;;;;;;13.90;5.85;;;11.40;99.90;;;;;;5047300;28;20075;-71
2022/11/07 06:35:31;;;;;;;15.20;5.25;;;11.40;99.90;;;;;;5037101;28;20045;-71
2022/11/07 06:38:06;;;;;;;14.35;5.88;;;11.40;99.90;;;;;;5046840;28;20086;-71
2022/11/07 06:40:32;;;;;;;9.70;5.43;;;11.30;99.90;;;;;;5028829;28;20057;-71
2022/11/07 06:43:18;;;;;;;13.55;5.90;;;11.40;99.90;;;;;;5046140;28;20048;-71
2022/11/07 06:45:45;;;;;;;14.10;6.35;;;11.30;99.90;;;;;;5051954;28;20045;-70
2022/11/07 06:48:11;;;;;;;14.10;7.07;;;11.40;99.90;;;;;;5047118;28;20040;-70
2022/11/07 06:50:37;;;;;;;13.73;6.72;;;11.30;99.90;;;;;;5038946;28;20071;-70
2022/11/07 06:53:10;;;;;;;12.60;6.45;;;11.20;99.90;;;;;;5030491;28;20115;-70
2022/11/07 06:55:37;;;;;;;15.30;6.63;;;11.20;99.90;;;;;;5039573;28;20076;-70
2022/11/07 06:58:03;;;;;;;18.27;6.82;;;11.20;99.90;;;;;;5053241;28;20077;-70
2022/11/07 07:00:31;;;;;;;19.98;7.35;;;11.30;99.90;;;;;;5041527;28;20428;-70
2022/11/07 07:02:56;;;;;;;15.50;6.97;;;11.10;99.90;;;;;;5050531;28;20068;-70
2022/11/07 07:05:22;;;;;;;14.68;7.45;;;11.20;99.90;;;;;;5041234;28;20053;-70
2022/11/07 07:07:48;;;;;;;17.48;8.35;;;11.20;99.90;;;;;;5044865;28;20085;-65
2022/11/07 07:10:14;;;;;;;17.02;7.65;;;11.20;99.90;;;;;;5039451;28;20288;-65
2022/11/07 07:12:40;;;;;;;19.02;7.72;;;11.30;99.90;;;;;;5042673;28;20072;-65
2022/11/07 07:15:07;;;;;;;14.70;6.80;;;11.20;99.90;;;;;;5040685;28;20054;-65
2022/11/07 07:17:32;;;;;;;18.30;7.43;;;11.20;99.90;;;;;;5050231;28;20105;-65
2022/11/07 07:19:58;;;;;;;19.10;7.53;;;11.30;99.90;;;;;;5042161;28;20080;-65
2022/11/07 07:22:24;;;;;;;17.23;7.30;;;11.20;99.90;;;;;;5040703;28;20605;-65
2022/11/07 07:24:51;;;;;;;19.92;6.97;;;11.20;99.90;;;;;;5043549;28;20056;-65
2022/11/07 07:27:19;;;;;;;18.23;6.95;;;11.20;99.90;;;;;;5044939;28;20613;-65
2022/11/07 07:29:48;;;;;;;19.30;7.28;;;11.20;99.90;;;;;;5048716;28;20044;-66
2022/11/07 07:32:14;;;;;;;13.95;6.30;;;11.30;99.90;;;;;;5042545;28;20132;-65
2022/11/07 07:34:40;;;;;;;15.00;6.32;;;11.40;99.90;;;;;;5056933;28;20061;-65
2022/11/07 07:37:05;;;;;;;18.08;7.25;;;11.50;99.90;;;;;;5039933;28;20348;-65
2022/11/07 07:39:31;;;;;;;15.45;6.03;;;11.40;99.90;;;;;;5038859;28;20053;-66
2022/11/07 07:41:57;;;;;;;20.10;6.93;;;11.40;99.90;;;;;;5020017;28;20052;-65
2022/11/07 07:44:23;;;;;;;16.40;6.00;;;11.50;99.90;;;;;;5076604;28;20049;-65
2022/11/07 07:46:48;;;;;;;16.17;6.18;;;11.50;99.90;;;;;;5043854;28;20053;-65
2022/11/07 07:49:14;;;;;;;16.25;6.88;;;11.50;99.90;;;;;;5056477;28;20041;-65
2022/11/07 07:51:40;;;;;;;15.23;5.47;;;11.60;99.90;;;;;;5038255;28;20056;-65
2022/11/07 07:54:05;;;;;;;18.85;6.57;;;11.60;99.90;;;;;;5042031;28;20049;-65
2022/11/07 07:56:31;;;;;;;23.77;7.07;;;11.60;99.90;;;;;;5030703;28;20434;-63
2022/11/07 07:58:57;;;;;;;15.75;5.53;;;11.50;99.90;;;;;;5069623;28;20037;-62
2022/11/07 08:01:23;;;;;;;16.80;5.78;;;11.60;99.90;;;;;;5030219;28;20056;-64
2022/11/07 08:03:48;;;;;;;14.95;5.57;;;11.60;99.90;;;;;;5050443;28;20103;-62
2022/11/07 08:06:14;;;;;;;16.67;5.97;;;11.60;99.90;;;;;;5032574;28;20104;-63
2022/11/07 08:08:40;;;;;;;15.80;5.55;;;11.80;99.90;;;;;;5037569;28;20062;-63
2022/11/07 08:11:07;;;;;;;14.70;5.45;;;11.70;99.90;;;;;;5031016;28;20112;-63
2022/11/07 08:13:33;;;;;;;18.58;5.13;;;11.70;99.90;;;;;;5042695;28;20084;-63
2022/11/07 08:16:02;;;;;;;17.33;5.45;;;11.80;99.90;;;;;;5025927;28;20053;-63
2022/11/07 08:18:28;;;;;;;17.63;5.35;;;11.80;99.90;;;;;;5069370;28;20048;-63
2022/11/07 08:20:54;;;;;;;14.13;4.90;;;11.80;99.90;;;;;;5048625;28;20115;-63
2022/11/07 08:23:21;;;;;;;16.42;4.57;;;11.90;99.90;;;;;;5059991;28;20074;-63
2022/11/07 08:25:56;;;;;;;10.55;4.88;;;11.90;99.90;;;;;;5051486;28;20049;-63
2022/11/07 08:28:23;;;;;;;16.40;5.00;;;12.00;99.90;;;;;;5054088;28;20056;-63
2022/11/07 08:31:00;;;;;;;14.20;4.95;;;11.90;99.90;;;;;;5037812;28;20056;-63
2022/11/07 08:33:26;;;;;;;9.85;4.40;;;12.00;99.90;;;;;;5063567;28;20087;-63
2022/11/07 08:35:59;;;;;;;13.05;4.90;;;12.10;99.90;;;;;;5051852;28;20500;-63
2022/11/07 08:38:26;;;;;;;14.68;5.32;;;12.10;99.90;;;;;;5063238;28;20086;-62
2022/11/07 08:40:52;;;;;;;17.73;5.47;;;12.10;99.90;;;;;;5027566;28;20042;-63
2022/11/07 08:43:18;;;;;;;18.65;5.22;;;12.20;99.90;;;;;;5075738;28;20044;-63
2022/11/07 08:45:44;;;;;;;14.88;5.00;;;12.20;99.90;;;;;;5037252;28;20240;-63
2022/11/07 08:48:10;;;;;;;14.10;4.95;;;12.10;99.90;;;;;;5064238;28;20049;-63
2022/11/07 08:50:36;;;;;;;17.20;5.30;;;12.20;99.90;;;;;;5046947;28;20124;-63
2022/11/07 08:53:02;;;;;;;12.77;4.38;;;12.20;99.90;;;;;;5052856;28;20086;-63
2022/11/07 08:55:28;;;;;;;20.80;5.15;;;12.20;99.90;;;;;;5039352;28;20079;-62
2022/11/07 08:57:58;;;;;;;18.10;5.22;;;12.30;99.90;;;;;;5051041;28;20064;-63
2022/11/07 09:00:24;;;;;;;16.17;5.05;;;12.30;99.90;;;;;;5043149;28;20348;-63
2022/11/07 09:02:50;;;;;;;15.80;6.13;;;12.30;99.90;;;;;;5043760;28;20472;-62
2022/11/07 09:05:16;;;;;;;13.25;4.65;;;12.40;99.90;;;;;;5046195;28;20076;-62
2022/11/07 09:07:41;;;;;;;11.50;5.03;;;12.40;99.90;;;;;;5047337;28;20141;-63
2022/11/07 09:10:08;;;;;;;13.80;4.75;;;12.40;99.90;;;;;;5050898;28;20048;-63
2022/11/07 09:12:33;;;;;;;13.55;4.18;;;12.40;99.90;;;;;;5038977;28;20219;-62
2022/11/07 09:14:59;;;;;;;12.95;4.78;;;12.40;99.90;;;;;;5055588;28;20037;-63
2022/11/07 09:17:26;;;;;;;16.25;4.43;;;12.60;99.90;;;;;;5052677;28;20044;-63
2022/11/07 09:19:52;;;;;;;13.68;4.32;;;12.60;99.90;;;;;;5043748;28;20136;-63
2022/11/07 09:22:17;;;;;;;12.90;4.10;;;12.60;99.90;;;;;;5036414;28;20249;-63
2022/11/07 09:24:43;;;;;;;15.63;4.53;;;12.50;99.90;;;;;;5062326;28;20045;-63
2022/11/07 09:27:09;;;;;;;17.30;4.45;;;12.50;99.90;;;;;;5037013;28;20676;-63
2022/11/07 09:29:35;;;;;;;18.25;4.07;;;12.50;99.90;;;;;;5031422;28;20049;-62
2022/11/07 09:32:00;;;;;;;15.68;5.15;;;12.40;99.90;;;;;;5033909;28;20053;-63
2022/11/07 09:34:26;;;;;;;16.13;5.05;;;12.50;99.90;;;;;;5053943;28;20041;-63
2022/11/07 09:36:52;;;;;;;19.15;4.72;;;12.40;99.90;;;;;;5036297;28;20064;-63
2022/11/07 09:39:17;;;;;;;15.65;4.85;;;12.50;99.90;;;;;;5070088;28;20044;-63
2022/11/07 09:41:50;;;;;;;15.40;5.70;;;12.50;99.90;;;;;;5019960;28;20049;-63
2022/11/07 09:44:19;;;;;;;16.60;6.70;;;12.50;99.90;;;;;;5055284;28;20453;-63
2022/11/07 09:47:06;;;;;;;19.60;5.80;;;12.30;99.90;;;;;;5030151;28;20041;-63
2022/11/07 09:49:38;;;;;;;14.18;4.63;;;12.40;99.90;;;;;;5034991;28;20095;-62
2022/11/07 09:52:28;;;;;;;19.25;5.70;;;12.30;99.90;;;;;;5034936;28;20048;-63
2022/11/07 09:55:19;;;;;;;17.40;4.88;;;12.30;99.90;;;;;;5058109;28;20358;-63
2022/11/07 09:57:47;;;;;;;9.77;4.43;;;12.40;99.90;;;;;;5045165;28;20048;-63
2022/11/07 10:00:19;;;;;;;13.88;4.57;;;12.40;99.90;;;;;;5041784;28;20042;-63
2022/11/07 10:02:54;;;;;;;18.10;5.07;;;12.50;99.90;;;;;;5045328;28;20064;-63
2022/11/07 10:05:38;;;;;;;11.18;4.15;;;12.60;99.90;;;;;;5055104;28;20127;-63
2022/11/07 10:08:13;;;;;;;12.05;4.07;;;12.70;99.90;;;;;;5044326;28;20053;-63
2022/11/07 10:10:56;;;;;;;13.57;4.70;;;12.80;99.90;;;;;;5048322;28;20056;-63
2022/11/07 10:13:55;;;;;;;14.75;4.65;;;12.90;99.90;;;;;;5041194;28;20984;-63
2022/11/07 10:17:03;;;;;;;12.13;4.00;;;12.80;99.90;;;;;;5041290;28;20085;-63
2022/11/07 10:19:47;;;;;;;12.18;5.28;;;12.90;99.90;;;;;;5012605;28;20064;-63
2022/11/07 10:22:21;;;;;;;14.25;4.00;;;12.90;99.90;;;;;;5042778;28;20382;-63
2022/11/07 10:25:03;;;;;;;13.10;4.88;;;12.90;99.90;;;;;;5059606;28;20033;-65
2022/11/07 10:27:29;;;;;;;19.55;5.40;;;12.90;99.90;;;;;;5043707;28;20048;-63
2022/11/07 10:29:55;;;;;;;16.55;5.15;;;12.80;99.90;;;;;;5057545;28;20378;-63
2022/11/07 10:32:31;;;;;;;13.77;5.10;;;12.80;99.90;;;;;;5046951;28;20474;-63
2022/11/07 10:35:26;;;;;;;13.88;4.88;;;12.80;99.90;;;;;;5051854;28;20045;-63
2022/11/07 10:37:56;;;;;;;15.77;5.25;;;12.90;99.90;;;;;;5041921;28;20824;-63
2022/11/07 10:40:27;;;;;;;17.80;5.75;;;13.10;99.90;;;;;;5034383;28;20061;-64
2022/11/07 10:42:54;;;;;;;13.18;4.30;;;13.10;99.90;;;;;;5041845;28;20489;-63
2022/11/07 10:45:21;;;;;;;13.52;5.10;;;13.20;99.90;;;;;;5045671;28;20041;-62
2022/11/07 10:48:01;;;;;;;14.85;5.97;;;13.20;99.90;;;;;;5041267;28;20051;-63
2022/11/07 10:50:28;;;;;;;12.70;4.60;;;13.30;99.90;;;;;;5046470;28;20095;-63
2022/11/07 10:53:08;;;;;;;12.88;4.53;;;13.30;99.90;;;;;;5041706;28;20048;-63
2022/11/07 10:55:46;;;;;;;11.00;4.63;;;13.30;99.90;;;;;;5044952;28;20121;-63
2022/11/07 10:58:34;;;;;;;10.52;4.25;;;13.40;99.90;;;;;;5040979;28;20048;-63
2022/11/07 11:01:07;;;;;;;10.20;4.13;;;13.40;99.90;;;;;;5044125;28;20047;-63
2022/11/07 11:03:41;;;;;;;10.25;4.40;;;13.50;99.90;;;;;;5051827;28;20060;-63
2022/11/07 11:06:31;;;;;;;12.95;4.93;;;13.40;99.90;;;;;;5035417;28;20045;-63
2022/11/07 11:09:09;;;;;;;15.85;4.85;;;13.50;99.90;;;;;;5047139;28;20056;-63
2022/11/07 11:11:36;;;;;;;13.77;4.45;;;13.50;99.90;;;;;;5073596;28;20095;-62
2022/11/07 11:14:07;;;;;;;14.88;3.67;;;13.50;99.90;;;;;;5069278;28;20052;-63
2022/11/07 11:16:36;;;;;;;12.82;4.40;;;13.50;99.90;;;;;;5042307;28;20049;-61
2022/11/07 11:19:03;;;;;;;14.35;4.82;;;13.60;99.90;;;;;;5049831;28;20044;-62
2022/11/07 11:21:43;;;;;;;11.98;4.35;;;13.60;99.90;;;;;;5039086;28;20045;-62
2022/11/07 11:24:28;;;;;;;16.30;4.78;;;13.80;99.90;;;;;;5062194;28;20114;-62
2022/11/07 11:26:57;;;;;;;12.48;4.15;;;13.80;99.90;;;;;;5039104;28;20073;-62
2022/11/07 11:29:32;;;;;;;14.55;4.40;;;13.80;99.90;;;;;;5047688;28;20049;-61
2022/11/07 11:32:00;;;;;;;12.80;4.43;;;13.80;99.90;;;;;;5039841;28;20083;-62
2022/11/07 11:34:52;;;;;;;12.57;4.20;;;13.80;99.90;;;;;;5062447;28;20063;-62
2022/11/07 11:37:22;;;;;;;14.32;5.22;;;13.80;99.90;;;;;;5019246;28;20387;-62
2022/11/07 11:39:48;;;;;;;13.68;4.60;;;13.90;99.90;;;;;;5043022;28;20533;-62
2022/11/07 11:42:23;;;;;;;14.68;5.38;;;13.90;99.90;;;;;;4998957;28;20053;-62
2022/11/07 11:44:51;;;;;;;12.15;4.55;;;13.90;99.90;;;;;;5037501;28;20510;-62
2022/11/07 11:47:28;;;;;;;14.15;4.82;;;13.90;99.90;;;;;;5030835;28;20049;-62
2022/11/07 11:50:04;;;;;;;10.20;3.60;;;14.00;99.90;;;;;;5083445;28;20191;-63
2022/11/07 11:52:30;;;;;;;13.27;3.58;;;14.00;99.90;;;;;;5039165;28;20057;-62
2022/11/07 11:54:57;;;;;;;13.60;4.90;;;14.00;99.90;;;;;;5050430;28;20502;-63
2022/11/07 11:57:38;;;;;;;13.35;4.95;;;13.90;99.90;;;;;;5032752;28;20504;-62
2022/11/07 12:00:15;;;;;;;12.05;4.28;;;14.00;99.90;;;;;;5081472;28;20542;-62
2022/11/07 12:03:13;;;;;;;12.55;5.03;;;14.00;99.90;;;;;;5043392;28;20045;-62
2022/11/07 12:06:09;;;;;;;13.43;5.10;;;14.00;99.90;;;;;;4994105;28;20136;-62
2022/11/07 12:08:35;;;;;;;13.85;4.40;;;13.90;99.90;;;;;;5030066;28;20468;-62
2022/11/07 12:11:36;;;;;;;13.68;4.40;;;13.90;99.90;;;;;;4997911;28;20351;-62
2022/11/07 12:14:14;;;;;;;11.60;4.75;;;13.90;99.90;;;;;;5023319;28;20048;-62
2022/11/07 12:17:13;;;;;;;10.98;4.75;;;13.90;99.90;;;;;;5026442;28;20072;-62
2022/11/07 12:19:45;;;;;;;8.75;3.88;;;13.90;99.90;;;;;;5030339;28;20124;-62
2022/11/07 12:22:32;;;;;;;12.57;3.97;;;13.90;99.90;;;;;;5035272;28;20045;-62
2022/11/07 12:25:30;;;;;;;13.50;4.32;;;13.90;99.90;;;;;;5007698;28;20514;-62
2022/11/07 12:28:14;;;;;;;12.00;4.25;;;13.90;99.90;;;;;;4945939;28;20050;-62
2022/11/07 12:31:10;;;;;;;13.40;4.97;;;13.90;99.90;;;;;;4976487;28;20054;-62
2022/11/07 12:33:56;;;;;;;13.80;5.03;;;13.90;99.90;;;;;;4967756;28;20057;-62
2022/11/07 12:36:52;;;;;;;15.90;5.15;;;14.00;99.90;;;;;;4962490;28;20106;-62
2022/11/07 12:39:28;;;;;;;11.40;4.20;;;14.10;99.90;;;;;;4967159;28;20146;-62
2022/11/07 12:41:53;;;;;;;11.68;4.38;;;14.10;99.90;;;;;;4948593;28;20086;-62
2022/11/07 12:44:24;;;;;;;12.20;4.43;;;14.30;99.90;;;;;;4937371;28;20570;-62
2022/11/07 12:46:53;;;;;;;11.73;4.35;;;14.40;99.90;;;;;;4961425;28;20042;-62
2022/11/07 12:49:19;;;;;;;14.15;4.18;;;14.50;99.90;;;;;;4949041;28;20158;-62
2022/11/07 12:51:52;;;;;;;7.43;3.28;;;14.40;99.90;;;;;;4978599;28;20153;-62
2022/11/07 12:54:32;;;;;;;13.48;4.75;;;14.50;99.90;;;;;;4949571;28;20086;-62
2022/11/07 12:57:01;;;;;;;14.98;4.15;;;14.50;99.90;;;;;;4959185;28;20953;-62
2022/11/07 12:59:31;;;;;;;11.98;4.45;;;14.60;99.90;;;;;;4947145;28;20267;-62
2022/11/07 13:02:23;;;;;;;9.80;3.95;;;14.60;99.90;;;;;;4957499;28;20051;-62